sensor_id;sensor_type;location;lat;lon;timestamp;temperature;humidity
2995;DHT22;35277;49.890;8.222;2022-07-09T00:00:38;26.80;61.90
2995;DHT22;35277;49.890;8.222;2022-07-09T00:03:06;26.80;61.90
2995;DHT22;35277;49.890;8.222;2022-07-09T00:05:34;26.80;61.90
2995;DHT22;35277;49.890;8.222;2022-07-09T00:08:04;26.80;61.90
2995;DHT22;35277;49.890;8.222;2022-07-09T00:10:31;26.80;61.90
2995;DHT22;35277;49.890;8.222;2022-07-09T00:12:59;26.80;61.90
2995;DHT22;35277;49.890;8.222;2022-07-09T00:15:27;26.80;61.90
2995;DHT22;35277;49.890;8.222;2022-07-09T00:17:55;26.80;61.90
2995;DHT22;35277;49.890;8.222;2022-07-09T00:20:23;26.70;61.80
2995;DHT22;35277;49.890;8.222;2022-07-09T00:22:50;26.70;61.80
2995;DHT22;35277;49.890;8.222;2022-07-09T00:25:19;26.70;61.90
2995;DHT22;35277;49.890;8.222;2022-07-09T00:27:47;26.80;62.00
2995;DHT22;35277;49.890;8.222;2022-07-09T00:30:15;26.80;62.00
2995;DHT22;35277;49.890;8.222;2022-07-09T00:32:43;26.80;62.00
2995;DHT22;35277;49.890;8.222;2022-07-09T00:35:10;26.80;62.00
2995;DHT22;35277;49.890;8.222;2022-07-09T00:37:38;26.80;62.00
2995;DHT22;35277;49.890;8.222;2022-07-09T00:40:07;26.80;62.00
2995;DHT22;35277;49.890;8.222;2022-07-09T00:42:36;26.80;62.00
2995;DHT22;35277;49.890;8.222;2022-07-09T00:45:05;26.70;61.90
2995;DHT22;35277;49.890;8.222;2022-07-09T00:47:33;26.70;61.90
2995;DHT22;35277;49.890;8.222;2022-07-09T00:50:01;26.70;61.90
2995;DHT22;35277;49.890;8.222;2022-07-09T00:52:30;26.70;62.80
2995;DHT22;35277;49.890;8.222;2022-07-09T00:55:00;26.70;62.00
2995;DHT22;35277;49.890;8.222;2022-07-09T00:57:29;26.70;62.00
2995;DHT22;35277;49.890;8.222;2022-07-09T00:59:58;26.70;62.00
2995;DHT22;35277;49.890;8.222;2022-07-09T01:02:27;26.70;62.00
2995;DHT22;35277;49.890;8.222;2022-07-09T01:04:55;26.80;62.10
2995;DHT22;35277;49.890;8.222;2022-07-09T01:07:23;26.70;62.00
2995;DHT22;35277;49.890;8.222;2022-07-09T01:09:50;26.70;62.00
2995;DHT22;35277;49.890;8.222;2022-07-09T01:12:18;26.70;62.00
2995;DHT22;35277;49.890;8.222;2022-07-09T01:14:46;26.70;62.10
2995;DHT22;35277;49.890;8.222;2022-07-09T01:17:15;26.70;62.10
2995;DHT22;35277;49.890;8.222;2022-07-09T01:19:43;26.70;62.10
2995;DHT22;35277;49.890;8.222;2022-07-09T01:22:12;26.70;62.10
2995;DHT22;35277;49.890;8.222;2022-07-09T01:24:40;26.70;62.10
2995;DHT22;35277;49.890;8.222;2022-07-09T01:27:07;26.70;62.10
2995;DHT22;35277;49.890;8.222;2022-07-09T01:29:36;26.70;62.10
2995;DHT22;35277;49.890;8.222;2022-07-09T01:32:04;26.70;62.10
2995;DHT22;35277;49.890;8.222;2022-07-09T01:34:32;26.70;62.20
2995;DHT22;35277;49.890;8.222;2022-07-09T01:37:00;26.70;62.20
2995;DHT22;35277;49.890;8.222;2022-07-09T01:39:29;26.70;62.20
2995;DHT22;35277;49.890;8.222;2022-07-09T01:41:57;26.70;62.20
2995;DHT22;35277;49.890;8.222;2022-07-09T01:44:24;26.70;62.30
2995;DHT22;35277;49.890;8.222;2022-07-09T01:46:52;26.70;62.20
2995;DHT22;35277;49.890;8.222;2022-07-09T01:49:20;26.70;62.20
2995;DHT22;35277;49.890;8.222;2022-07-09T01:51:48;26.70;62.30
2995;DHT22;35277;49.890;8.222;2022-07-09T01:54:15;26.70;62.30
2995;DHT22;35277;49.890;8.222;2022-07-09T01:56:45;26.70;62.30
2995;DHT22;35277;49.890;8.222;2022-07-09T01:59:12;26.70;62.30
2995;DHT22;35277;49.890;8.222;2022-07-09T02:01:40;26.70;62.30
2995;DHT22;35277;49.890;8.222;2022-07-09T02:04:08;26.70;62.30
2995;DHT22;35277;49.890;8.222;2022-07-09T02:06:36;26.70;62.30
2995;DHT22;35277;49.890;8.222;2022-07-09T02:09:04;26.70;62.30
2995;DHT22;35277;49.890;8.222;2022-07-09T02:11:32;26.70;62.30
2995;DHT22;35277;49.890;8.222;2022-07-09T02:14:01;26.70;62.30
2995;DHT22;35277;49.890;8.222;2022-07-09T02:16:28;26.70;62.30
2995;DHT22;35277;49.890;8.222;2022-07-09T02:18:56;26.70;62.30
2995;DHT22;35277;49.890;8.222;2022-07-09T02:21:24;26.70;62.30
2995;DHT22;35277;49.890;8.222;2022-07-09T02:23:52;26.70;62.30
2995;DHT22;35277;49.890;8.222;2022-07-09T02:26:25;26.70;62.30
2995;DHT22;35277;49.890;8.222;2022-07-09T02:28:54;26.70;62.30
2995;DHT22;35277;49.890;8.222;2022-07-09T02:31:23;26.70;62.40
2995;DHT22;35277;49.890;8.222;2022-07-09T02:33:51;26.70;62.30
2995;DHT22;35277;49.890;8.222;2022-07-09T02:36:19;26.70;62.40
2995;DHT22;35277;49.890;8.222;2022-07-09T02:38:47;26.70;62.40
2995;DHT22;35277;49.890;8.222;2022-07-09T02:41:15;26.70;62.40
2995;DHT22;35277;49.890;8.222;2022-07-09T02:43:43;26.70;62.40
2995;DHT22;35277;49.890;8.222;2022-07-09T02:46:11;26.70;62.30
2995;DHT22;35277;49.890;8.222;2022-07-09T02:48:40;26.70;62.40
2995;DHT22;35277;49.890;8.222;2022-07-09T02:51:08;26.70;62.40
2995;DHT22;35277;49.890;8.222;2022-07-09T02:53:35;26.70;62.40
2995;DHT22;35277;49.890;8.222;2022-07-09T02:56:04;26.70;62.40
2995;DHT22;35277;49.890;8.222;2022-07-09T02:58:31;26.70;62.40
2995;DHT22;35277;49.890;8.222;2022-07-09T03:01:00;26.70;62.40
2995;DHT22;35277;49.890;8.222;2022-07-09T03:03:28;26.70;62.40
2995;DHT22;35277;49.890;8.222;2022-07-09T03:05:57;26.70;62.40
2995;DHT22;35277;49.890;8.222;2022-07-09T03:08:25;26.70;62.40
2995;DHT22;35277;49.890;8.222;2022-07-09T03:10:52;26.70;62.40
2995;DHT22;35277;49.890;8.222;2022-07-09T03:13:20;26.70;62.40
2995;DHT22;35277;49.890;8.222;2022-07-09T03:15:48;26.70;62.40
2995;DHT22;35277;49.890;8.222;2022-07-09T03:18:17;26.70;62.50
2995;DHT22;35277;49.890;8.222;2022-07-09T03:20:45;26.70;62.40
2995;DHT22;35277;49.890;8.222;2022-07-09T03:23:14;26.70;62.40
2995;DHT22;35277;49.890;8.222;2022-07-09T03:25:41;26.70;62.40
2995;DHT22;35277;49.890;8.222;2022-07-09T03:28:10;26.70;62.50
2995;DHT22;35277;49.890;8.222;2022-07-09T03:30:37;26.70;62.50
2995;DHT22;35277;49.890;8.222;2022-07-09T03:33:05;26.70;62.50
2995;DHT22;35277;49.890;8.222;2022-07-09T03:35:33;26.70;62.50
2995;DHT22;35277;49.890;8.222;2022-07-09T03:38:01;26.70;62.50
2995;DHT22;35277;49.890;8.222;2022-07-09T03:40:30;26.70;62.50
2995;DHT22;35277;49.890;8.222;2022-07-09T03:42:58;26.70;62.50
2995;DHT22;35277;49.890;8.222;2022-07-09T03:45:26;26.70;62.60
2995;DHT22;35277;49.890;8.222;2022-07-09T03:47:53;26.70;62.50
2995;DHT22;35277;49.890;8.222;2022-07-09T03:50:21;26.70;62.50
2995;DHT22;35277;49.890;8.222;2022-07-09T03:52:49;26.70;62.60
2995;DHT22;35277;49.890;8.222;2022-07-09T03:55:17;26.70;62.60
2995;DHT22;35277;49.890;8.222;2022-07-09T03:57:46;26.70;62.60
2995;DHT22;35277;49.890;8.222;2022-07-09T04:00:14;26.70;62.60
2995;DHT22;35277;49.890;8.222;2022-07-09T04:02:43;26.70;62.60
2995;DHT22;35277;49.890;8.222;2022-07-09T04:05:11;26.70;62.60
2995;DHT22;35277;49.890;8.222;2022-07-09T04:07:39;26.70;62.60
2995;DHT22;35277;49.890;8.222;2022-07-09T04:10:08;26.70;62.60
2995;DHT22;35277;49.890;8.222;2022-07-09T04:12:36;26.70;62.60
2995;DHT22;35277;49.890;8.222;2022-07-09T04:15:06;26.70;62.60
2995;DHT22;35277;49.890;8.222;2022-07-09T04:17:34;26.70;62.70
2995;DHT22;35277;49.890;8.222;2022-07-09T04:20:03;26.70;62.60
2995;DHT22;35277;49.890;8.222;2022-07-09T04:22:31;26.70;62.70
2995;DHT22;35277;49.890;8.222;2022-07-09T04:24:58;26.70;62.70
2995;DHT22;35277;49.890;8.222;2022-07-09T04:27:26;26.70;62.70
2995;DHT22;35277;49.890;8.222;2022-07-09T04:29:54;26.70;62.70
2995;DHT22;35277;49.890;8.222;2022-07-09T04:32:23;26.70;62.70
2995;DHT22;35277;49.890;8.222;2022-07-09T04:34:51;26.70;62.70
2995;DHT22;35277;49.890;8.222;2022-07-09T04:37:19;26.70;62.70
2995;DHT22;35277;49.890;8.222;2022-07-09T04:39:47;26.70;62.70
2995;DHT22;35277;49.890;8.222;2022-07-09T04:42:14;26.70;62.70
2995;DHT22;35277;49.890;8.222;2022-07-09T04:44:42;26.70;62.70
2995;DHT22;35277;49.890;8.222;2022-07-09T04:47:10;26.70;62.70
2995;DHT22;35277;49.890;8.222;2022-07-09T04:49:39;26.60;62.60
2995;DHT22;35277;49.890;8.222;2022-07-09T04:52:07;26.70;62.70
2995;DHT22;35277;49.890;8.222;2022-07-09T04:54:35;26.70;62.80
2995;DHT22;35277;49.890;8.222;2022-07-09T04:57:03;26.70;62.70
2995;DHT22;35277;49.890;8.222;2022-07-09T04:59:31;26.70;62.80
2995;DHT22;35277;49.890;8.222;2022-07-09T05:01:59;26.70;62.80
2995;DHT22;35277;49.890;8.222;2022-07-09T05:04:27;26.70;62.80
2995;DHT22;35277;49.890;8.222;2022-07-09T05:06:56;26.70;62.90
2995;DHT22;35277;49.890;8.222;2022-07-09T05:09:24;26.70;62.90
2995;DHT22;35277;49.890;8.222;2022-07-09T05:11:52;26.70;62.90
2995;DHT22;35277;49.890;8.222;2022-07-09T05:14:20;26.70;62.90
2995;DHT22;35277;49.890;8.222;2022-07-09T05:16:48;26.70;62.90
2995;DHT22;35277;49.890;8.222;2022-07-09T05:19:16;26.70;62.90
2995;DHT22;35277;49.890;8.222;2022-07-09T05:21:44;26.70;62.90
2995;DHT22;35277;49.890;8.222;2022-07-09T05:24:13;26.70;62.90
2995;DHT22;35277;49.890;8.222;2022-07-09T05:26:41;26.70;62.90
2995;DHT22;35277;49.890;8.222;2022-07-09T05:29:09;26.70;62.90
2995;DHT22;35277;49.890;8.222;2022-07-09T05:31:36;26.70;62.90
2995;DHT22;35277;49.890;8.222;2022-07-09T05:34:04;26.70;62.90
2995;DHT22;35277;49.890;8.222;2022-07-09T05:36:32;26.70;62.90
2995;DHT22;35277;49.890;8.222;2022-07-09T05:39:00;26.70;62.90
2995;DHT22;35277;49.890;8.222;2022-07-09T05:41:29;26.70;63.00
2995;DHT22;35277;49.890;8.222;2022-07-09T05:43:57;26.70;63.00
2995;DHT22;35277;49.890;8.222;2022-07-09T05:46:25;26.70;63.00
2995;DHT22;35277;49.890;8.222;2022-07-09T05:48:53;26.70;63.00
2995;DHT22;35277;49.890;8.222;2022-07-09T05:51:21;26.70;63.10
2995;DHT22;35277;49.890;8.222;2022-07-09T05:53:49;26.70;63.10
2995;DHT22;35277;49.890;8.222;2022-07-09T05:56:17;26.70;63.10
2995;DHT22;35277;49.890;8.222;2022-07-09T05:58:46;26.70;63.20
2995;DHT22;35277;49.890;8.222;2022-07-09T06:01:14;26.70;63.20
2995;DHT22;35277;49.890;8.222;2022-07-09T06:03:42;26.70;63.20
2995;DHT22;35277;49.890;8.222;2022-07-09T06:06:10;26.70;63.20
2995;DHT22;35277;49.890;8.222;2022-07-09T06:08:38;26.80;63.30
2995;DHT22;35277;49.890;8.222;2022-07-09T06:11:06;26.70;63.30
2995;DHT22;35277;49.890;8.222;2022-07-09T06:13:34;26.70;63.20
2995;DHT22;35277;49.890;8.222;2022-07-09T06:16:04;26.70;63.30
2995;DHT22;35277;49.890;8.222;2022-07-09T06:18:31;26.80;63.30
2995;DHT22;35277;49.890;8.222;2022-07-09T06:21:00;26.70;63.30
2995;DHT22;35277;49.890;8.222;2022-07-09T06:23:28;26.60;63.30
2995;DHT22;35277;49.890;8.222;2022-07-09T06:25:56;26.50;63.40
2995;DHT22;35277;49.890;8.222;2022-07-09T06:28:23;26.50;63.70
2995;DHT22;35277;49.890;8.222;2022-07-09T06:30:51;26.40;63.80
2995;DHT22;35277;49.890;8.222;2022-07-09T06:33:20;26.20;63.90
2995;DHT22;35277;49.890;8.222;2022-07-09T06:35:48;26.10;64.00
2995;DHT22;35277;49.890;8.222;2022-07-09T06:38:16;26.10;64.30
2995;DHT22;35277;49.890;8.222;2022-07-09T06:40:44;26.00;64.40
2995;DHT22;35277;49.890;8.222;2022-07-09T06:43:12;26.00;64.60
2995;DHT22;35277;49.890;8.222;2022-07-09T06:45:44;26.00;64.80
2995;DHT22;35277;49.890;8.222;2022-07-09T06:48:12;26.00;64.90
2995;DHT22;35277;49.890;8.222;2022-07-09T06:50:42;26.00;65.10
2995;DHT22;35277;49.890;8.222;2022-07-09T06:53:09;26.00;65.20
2995;DHT22;35277;49.890;8.222;2022-07-09T06:55:37;25.90;65.20
2995;DHT22;35277;49.890;8.222;2022-07-09T06:58:05;25.90;65.40
2995;DHT22;35277;49.890;8.222;2022-07-09T07:00:33;25.90;65.50
2995;DHT22;35277;49.890;8.222;2022-07-09T07:03:01;25.90;65.70
2995;DHT22;35277;49.890;8.222;2022-07-09T07:05:29;25.90;65.80
2995;DHT22;35277;49.890;8.222;2022-07-09T07:07:58;25.80;65.80
2995;DHT22;35277;49.890;8.222;2022-07-09T07:10:26;25.80;66.00
2995;DHT22;35277;49.890;8.222;2022-07-09T07:12:54;25.80;66.00
2995;DHT22;35277;49.890;8.222;2022-07-09T07:15:22;25.80;66.10
2995;DHT22;35277;49.890;8.222;2022-07-09T07:17:50;25.80;66.30
2995;DHT22;35277;49.890;8.222;2022-07-09T07:20:24;25.70;66.30
2995;DHT22;35277;49.890;8.222;2022-07-09T07:22:52;25.70;66.40
2995;DHT22;35277;49.890;8.222;2022-07-09T07:25:21;25.70;66.50
2995;DHT22;35277;49.890;8.222;2022-07-09T07:27:49;25.70;66.60
2995;DHT22;35277;49.890;8.222;2022-07-09T07:30:17;25.70;66.70
2995;DHT22;35277;49.890;8.222;2022-07-09T07:32:45;25.70;66.70
2995;DHT22;35277;49.890;8.222;2022-07-09T07:35:13;25.70;66.70
2995;DHT22;35277;49.890;8.222;2022-07-09T07:37:41;25.70;66.70
2995;DHT22;35277;49.890;8.222;2022-07-09T07:40:10;25.80;66.80
2995;DHT22;35277;49.890;8.222;2022-07-09T07:42:39;25.80;66.80
2995;DHT22;35277;49.890;8.222;2022-07-09T07:45:08;25.80;66.80
2995;DHT22;35277;49.890;8.222;2022-07-09T07:47:36;25.80;66.70
2995;DHT22;35277;49.890;8.222;2022-07-09T07:50:04;25.80;66.70
2995;DHT22;35277;49.890;8.222;2022-07-09T07:52:32;25.80;66.80
2995;DHT22;35277;49.890;8.222;2022-07-09T07:55:00;25.80;66.80
2995;DHT22;35277;49.890;8.222;2022-07-09T07:57:28;25.80;66.80
2995;DHT22;35277;49.890;8.222;2022-07-09T07:59:57;25.80;66.80
2995;DHT22;35277;49.890;8.222;2022-07-09T08:02:25;25.90;66.90
2995;DHT22;35277;49.890;8.222;2022-07-09T08:04:53;25.90;66.90
2995;DHT22;35277;49.890;8.222;2022-07-09T08:07:21;25.90;66.90
2995;DHT22;35277;49.890;8.222;2022-07-09T08:09:48;25.90;66.80
2995;DHT22;35277;49.890;8.222;2022-07-09T08:12:16;26.00;66.80
2995;DHT22;35277;49.890;8.222;2022-07-09T08:14:44;26.00;66.80
2995;DHT22;35277;49.890;8.222;2022-07-09T08:17:13;26.00;66.70
2995;DHT22;35277;49.890;8.222;2022-07-09T08:19:41;26.00;66.70
2995;DHT22;35277;49.890;8.222;2022-07-09T08:22:09;26.00;66.70
2995;DHT22;35277;49.890;8.222;2022-07-09T08:24:37;25.90;66.70
2995;DHT22;35277;49.890;8.222;2022-07-09T08:27:05;25.90;66.60
2995;DHT22;35277;49.890;8.222;2022-07-09T08:29:33;25.90;67.90
2995;DHT22;35277;49.890;8.222;2022-07-09T08:32:00;25.90;67.50
2995;DHT22;35277;49.890;8.222;2022-07-09T08:34:30;25.90;67.50
2995;DHT22;35277;49.890;8.222;2022-07-09T08:36:58;25.90;67.50
2995;DHT22;35277;49.890;8.222;2022-07-09T08:39:26;25.90;67.40
2995;DHT22;35277;49.890;8.222;2022-07-09T08:41:54;25.90;67.30
2995;DHT22;35277;49.890;8.222;2022-07-09T08:44:28;25.90;67.10
2995;DHT22;35277;49.890;8.222;2022-07-09T08:46:57;25.90;66.90
2995;DHT22;35277;49.890;8.222;2022-07-09T08:49:26;25.90;66.70
2995;DHT22;35277;49.890;8.222;2022-07-09T08:51:56;25.80;66.40
2995;DHT22;35277;49.890;8.222;2022-07-09T08:54:24;25.90;66.40
2995;DHT22;35277;49.890;8.222;2022-07-09T08:56:52;25.80;66.30
2995;DHT22;35277;49.890;8.222;2022-07-09T08:59:20;25.80;66.20
2995;DHT22;35277;49.890;8.222;2022-07-09T09:01:48;25.80;66.20
2995;DHT22;35277;49.890;8.222;2022-07-09T09:04:17;25.80;66.10
2995;DHT22;35277;49.890;8.222;2022-07-09T09:06:45;25.80;66.00
2995;DHT22;35277;49.890;8.222;2022-07-09T09:09:19;25.70;65.80
2995;DHT22;35277;49.890;8.222;2022-07-09T09:11:48;25.70;65.60
2995;DHT22;35277;49.890;8.222;2022-07-09T09:14:20;25.70;65.60
2995;DHT22;35277;49.890;8.222;2022-07-09T09:16:49;25.70;65.50
2995;DHT22;35277;49.890;8.222;2022-07-09T09:19:17;25.70;65.40
2995;DHT22;35277;49.890;8.222;2022-07-09T09:21:50;25.70;65.30
2995;DHT22;35277;49.890;8.222;2022-07-09T09:24:25;25.80;65.40
2995;DHT22;35277;49.890;8.222;2022-07-09T09:26:56;25.80;65.30
2995;DHT22;35277;49.890;8.222;2022-07-09T09:29:24;25.90;65.40
2995;DHT22;35277;49.890;8.222;2022-07-09T09:31:53;25.90;65.30
2995;DHT22;35277;49.890;8.222;2022-07-09T09:34:22;26.00;65.30
2995;DHT22;35277;49.890;8.222;2022-07-09T09:36:50;26.00;65.20
2995;DHT22;35277;49.890;8.222;2022-07-09T09:39:23;26.10;65.20
2995;DHT22;35277;49.890;8.222;2022-07-09T09:41:53;26.10;65.10
2995;DHT22;35277;49.890;8.222;2022-07-09T09:44:22;26.20;65.10
2995;DHT22;35277;49.890;8.222;2022-07-09T09:46:53;26.20;65.10
2995;DHT22;35277;49.890;8.222;2022-07-09T09:49:21;26.30;65.00
2995;DHT22;35277;49.890;8.222;2022-07-09T09:51:51;26.30;65.00
2995;DHT22;35277;49.890;8.222;2022-07-09T09:54:25;26.30;64.90
2995;DHT22;35277;49.890;8.222;2022-07-09T09:56:54;26.30;64.80
2995;DHT22;35277;49.890;8.222;2022-07-09T09:59:21;26.40;64.80
2995;DHT22;35277;49.890;8.222;2022-07-09T10:01:49;26.30;64.70
2995;DHT22;35277;49.890;8.222;2022-07-09T10:04:18;26.40;64.70
2995;DHT22;35277;49.890;8.222;2022-07-09T10:06:47;26.40;64.70
2995;DHT22;35277;49.890;8.222;2022-07-09T10:09:15;26.40;64.70
2995;DHT22;35277;49.890;8.222;2022-07-09T10:11:45;26.40;64.50
2995;DHT22;35277;49.890;8.222;2022-07-09T10:14:17;26.50;64.60
2995;DHT22;35277;49.890;8.222;2022-07-09T10:16:56;26.50;64.60
2995;DHT22;35277;49.890;8.222;2022-07-09T10:19:25;26.50;64.50
2995;DHT22;35277;49.890;8.222;2022-07-09T10:21:55;26.50;64.40
2995;DHT22;35277;49.890;8.222;2022-07-09T10:24:26;26.50;64.20
2995;DHT22;35277;49.890;8.222;2022-07-09T10:27:04;26.50;63.90
2995;DHT22;35277;49.890;8.222;2022-07-09T10:29:33;26.50;63.90
2995;DHT22;35277;49.890;8.222;2022-07-09T10:32:02;26.50;63.90
2995;DHT22;35277;49.890;8.222;2022-07-09T10:34:48;26.50;64.00
2995;DHT22;35277;49.890;8.222;2022-07-09T10:37:30;26.50;64.10
2995;DHT22;35277;49.890;8.222;2022-07-09T10:40:08;26.50;64.20
2995;DHT22;35277;49.890;8.222;2022-07-09T10:42:38;26.50;64.20
2995;DHT22;35277;49.890;8.222;2022-07-09T10:45:25;26.60;64.30
2995;DHT22;35277;49.890;8.222;2022-07-09T10:47:54;26.60;64.20
2995;DHT22;35277;49.890;8.222;2022-07-09T10:50:23;26.60;64.00
2995;DHT22;35277;49.890;8.222;2022-07-09T10:52:52;26.60;64.10
2995;DHT22;35277;49.890;8.222;2022-07-09T10:55:21;26.50;63.70
2995;DHT22;35277;49.890;8.222;2022-07-09T10:57:51;26.60;63.70
2995;DHT22;35277;49.890;8.222;2022-07-09T11:00:21;26.60;63.80
2995;DHT22;35277;49.890;8.222;2022-07-09T11:02:56;26.60;64.00
2995;DHT22;35277;49.890;8.222;2022-07-09T11:05:27;26.60;64.10
2995;DHT22;35277;49.890;8.222;2022-07-09T11:07:56;26.70;64.30
2995;DHT22;35277;49.890;8.222;2022-07-09T11:10:24;26.70;64.20
2995;DHT22;35277;49.890;8.222;2022-07-09T11:12:55;26.70;64.00
2995;DHT22;35277;49.890;8.222;2022-07-09T11:15:25;26.70;63.70
2995;DHT22;35277;49.890;8.222;2022-07-09T11:17:55;26.70;63.40
2995;DHT22;35277;49.890;8.222;2022-07-09T11:20:23;26.60;63.00
2995;DHT22;35277;49.890;8.222;2022-07-09T11:22:51;26.60;62.70
2995;DHT22;35277;49.890;8.222;2022-07-09T11:25:24;26.60;62.50
2995;DHT22;35277;49.890;8.222;2022-07-09T11:27:57;26.60;62.40
2995;DHT22;35277;49.890;8.222;2022-07-09T11:30:26;26.60;62.20
2995;DHT22;35277;49.890;8.222;2022-07-09T11:32:54;26.50;62.00
2995;DHT22;35277;49.890;8.222;2022-07-09T11:35:26;26.60;62.00
2995;DHT22;35277;49.890;8.222;2022-07-09T11:37:55;26.60;61.90
2995;DHT22;35277;49.890;8.222;2022-07-09T11:40:24;26.50;61.80
2995;DHT22;35277;49.890;8.222;2022-07-09T11:42:52;26.50;61.80
2995;DHT22;35277;49.890;8.222;2022-07-09T11:45:22;26.50;61.70
2995;DHT22;35277;49.890;8.222;2022-07-09T11:48:00;26.50;61.70
2995;DHT22;35277;49.890;8.222;2022-07-09T11:50:29;26.50;61.60
2995;DHT22;35277;49.890;8.222;2022-07-09T11:52:57;26.50;61.60
2995;DHT22;35277;49.890;8.222;2022-07-09T11:55:28;26.50;61.60
2995;DHT22;35277;49.890;8.222;2022-07-09T11:57:57;26.60;61.60
2995;DHT22;35277;49.890;8.222;2022-07-09T12:00:28;26.60;61.50
2995;DHT22;35277;49.890;8.222;2022-07-09T12:02:57;26.60;61.40
2995;DHT22;35277;49.890;8.222;2022-07-09T12:05:28;26.60;61.40
2995;DHT22;35277;49.890;8.222;2022-07-09T12:07:58;26.60;62.30
2995;DHT22;35277;49.890;8.222;2022-07-09T12:10:28;26.60;61.40
2995;DHT22;35277;49.890;8.222;2022-07-09T12:12:57;26.60;61.30
2995;DHT22;35277;49.890;8.222;2022-07-09T12:15:27;26.60;61.30
2995;DHT22;35277;49.890;8.222;2022-07-09T12:17:56;26.60;61.40
2995;DHT22;35277;49.890;8.222;2022-07-09T12:20:25;26.60;61.40
2995;DHT22;35277;49.890;8.222;2022-07-09T12:22:54;26.60;61.50
2995;DHT22;35277;49.890;8.222;2022-07-09T12:25:22;26.70;61.70
2995;DHT22;35277;49.890;8.222;2022-07-09T12:27:50;26.70;61.70
2995;DHT22;35277;49.890;8.222;2022-07-09T12:30:18;26.70;61.70
2995;DHT22;35277;49.890;8.222;2022-07-09T12:32:48;26.70;61.70
2995;DHT22;35277;49.890;8.222;2022-07-09T12:35:16;26.70;61.80
2995;DHT22;35277;49.890;8.222;2022-07-09T12:37:44;26.80;61.90
2995;DHT22;35277;49.890;8.222;2022-07-09T12:40:12;26.80;61.90
2995;DHT22;35277;49.890;8.222;2022-07-09T12:42:40;26.80;61.90
2995;DHT22;35277;49.890;8.222;2022-07-09T12:45:09;26.80;62.00
2995;DHT22;35277;49.890;8.222;2022-07-09T12:47:38;26.80;62.00
2995;DHT22;35277;49.890;8.222;2022-07-09T12:50:08;26.80;62.00
2995;DHT22;35277;49.890;8.222;2022-07-09T12:52:38;26.90;62.10
2995;DHT22;35277;49.890;8.222;2022-07-09T12:55:06;26.90;62.20
2995;DHT22;35277;49.890;8.222;2022-07-09T12:57:36;26.90;62.10
2995;DHT22;35277;49.890;8.222;2022-07-09T13:00:05;26.90;62.10
2995;DHT22;35277;49.890;8.222;2022-07-09T13:02:33;26.90;61.90
2995;DHT22;35277;49.890;8.222;2022-07-09T13:05:01;26.90;61.90
2995;DHT22;35277;49.890;8.222;2022-07-09T13:07:31;26.90;61.90
2995;DHT22;35277;49.890;8.222;2022-07-09T13:09:58;26.90;61.90
2995;DHT22;35277;49.890;8.222;2022-07-09T13:12:26;26.90;62.00
2995;DHT22;35277;49.890;8.222;2022-07-09T13:14:54;26.90;62.00
2995;DHT22;35277;49.890;8.222;2022-07-09T13:17:25;26.90;62.10
2995;DHT22;35277;49.890;8.222;2022-07-09T13:19:57;26.90;62.10
2995;DHT22;35277;49.890;8.222;2022-07-09T13:22:25;26.90;62.20
2995;DHT22;35277;49.890;8.222;2022-07-09T13:24:54;26.90;62.30
2995;DHT22;35277;49.890;8.222;2022-07-09T13:27:22;26.90;62.40
2995;DHT22;35277;49.890;8.222;2022-07-09T13:29:50;26.90;62.40
2995;DHT22;35277;49.890;8.222;2022-07-09T13:32:18;26.90;62.50
2995;DHT22;35277;49.890;8.222;2022-07-09T13:34:49;26.90;62.50
2995;DHT22;35277;49.890;8.222;2022-07-09T13:37:17;26.90;62.60
2995;DHT22;35277;49.890;8.222;2022-07-09T13:39:45;26.90;62.60
2995;DHT22;35277;49.890;8.222;2022-07-09T13:42:14;26.90;62.70
2995;DHT22;35277;49.890;8.222;2022-07-09T13:44:42;26.90;62.70
2995;DHT22;35277;49.890;8.222;2022-07-09T13:47:10;26.90;62.70
2995;DHT22;35277;49.890;8.222;2022-07-09T13:49:38;26.90;62.70
2995;DHT22;35277;49.890;8.222;2022-07-09T13:52:06;26.90;62.80
2995;DHT22;35277;49.890;8.222;2022-07-09T13:54:33;26.90;62.80
2995;DHT22;35277;49.890;8.222;2022-07-09T13:57:01;26.90;62.80
2995;DHT22;35277;49.890;8.222;2022-07-09T13:59:31;26.90;62.80
2995;DHT22;35277;49.890;8.222;2022-07-09T14:01:58;26.90;62.90
2995;DHT22;35277;49.890;8.222;2022-07-09T14:04:26;26.90;62.90
2995;DHT22;35277;49.890;8.222;2022-07-09T14:06:54;26.90;62.90
2995;DHT22;35277;49.890;8.222;2022-07-09T14:09:22;26.90;63.00
2995;DHT22;35277;49.890;8.222;2022-07-09T14:11:50;26.90;63.00
2995;DHT22;35277;49.890;8.222;2022-07-09T14:14:18;26.90;63.00
2995;DHT22;35277;49.890;8.222;2022-07-09T14:16:47;26.90;63.00
2995;DHT22;35277;49.890;8.222;2022-07-09T14:19:15;26.90;63.00
2995;DHT22;35277;49.890;8.222;2022-07-09T14:21:42;26.90;63.00
2995;DHT22;35277;49.890;8.222;2022-07-09T14:24:12;26.90;63.00
2995;DHT22;35277;49.890;8.222;2022-07-09T14:26:40;26.90;63.10
2995;DHT22;35277;49.890;8.222;2022-07-09T14:29:10;26.90;63.10
2995;DHT22;35277;49.890;8.222;2022-07-09T14:31:38;26.90;63.10
2995;DHT22;35277;49.890;8.222;2022-07-09T14:34:07;26.90;63.10
2995;DHT22;35277;49.890;8.222;2022-07-09T14:36:35;26.90;63.20
2995;DHT22;35277;49.890;8.222;2022-07-09T14:39:03;26.90;63.10
2995;DHT22;35277;49.890;8.222;2022-07-09T14:41:31;26.90;63.20
2995;DHT22;35277;49.890;8.222;2022-07-09T14:43:59;26.90;63.20
2995;DHT22;35277;49.890;8.222;2022-07-09T14:46:27;26.90;63.20
2995;DHT22;35277;49.890;8.222;2022-07-09T14:48:55;26.90;63.20
2995;DHT22;35277;49.890;8.222;2022-07-09T14:51:24;26.90;63.20
2995;DHT22;35277;49.890;8.222;2022-07-09T14:53:52;26.90;63.20
2995;DHT22;35277;49.890;8.222;2022-07-09T14:56:19;26.90;63.20
2995;DHT22;35277;49.890;8.222;2022-07-09T14:58:47;26.90;63.20
2995;DHT22;35277;49.890;8.222;2022-07-09T15:01:15;26.90;63.20
2995;DHT22;35277;49.890;8.222;2022-07-09T15:03:43;26.90;63.20
2995;DHT22;35277;49.890;8.222;2022-07-09T15:06:11;26.90;63.20
2995;DHT22;35277;49.890;8.222;2022-07-09T15:08:40;26.90;63.20
2995;DHT22;35277;49.890;8.222;2022-07-09T15:11:09;26.90;63.20
2995;DHT22;35277;49.890;8.222;2022-07-09T15:13:38;26.90;63.20
2995;DHT22;35277;49.890;8.222;2022-07-09T15:16:06;26.90;63.30
2995;DHT22;35277;49.890;8.222;2022-07-09T15:18:34;26.90;63.30
2995;DHT22;35277;49.890;8.222;2022-07-09T15:21:02;26.90;63.30
2995;DHT22;35277;49.890;8.222;2022-07-09T15:23:31;26.90;63.30
2995;DHT22;35277;49.890;8.222;2022-07-09T15:26:00;26.90;63.40
2995;DHT22;35277;49.890;8.222;2022-07-09T15:28:28;26.90;63.40
2995;DHT22;35277;49.890;8.222;2022-07-09T15:30:55;26.90;63.40
2995;DHT22;35277;49.890;8.222;2022-07-09T15:33:23;26.90;63.40
2995;DHT22;35277;49.890;8.222;2022-07-09T15:35:52;26.90;63.40
2995;DHT22;35277;49.890;8.222;2022-07-09T15:38:20;26.90;63.50
2995;DHT22;35277;49.890;8.222;2022-07-09T15:40:47;26.90;63.40
2995;DHT22;35277;49.890;8.222;2022-07-09T15:43:17;26.90;63.50
2995;DHT22;35277;49.890;8.222;2022-07-09T15:45:44;26.90;63.50
2995;DHT22;35277;49.890;8.222;2022-07-09T15:48:12;26.90;63.50
2995;DHT22;35277;49.890;8.222;2022-07-09T15:50:40;26.90;63.50
2995;DHT22;35277;49.890;8.222;2022-07-09T15:53:08;26.90;63.50